createdAt,value
2018-08-24T00:01:16.929Z,3.77
2018-08-24T00:06:20.157Z,4.20
2018-08-24T00:11:23.352Z,3.40
2018-08-24T00:16:31.863Z,3.30
2018-08-24T00:21:35.128Z,3.77
2018-08-24T00:26:38.356Z,4.70
2018-08-24T00:31:41.612Z,3.37
2018-08-24T00:36:44.800Z,2.70
2018-08-24T00:41:48.005Z,2.47
2018-08-24T00:46:51.203Z,2.60
2018-08-24T00:51:54.424Z,2.40
2018-08-24T00:56:57.643Z,2.50
2018-08-24T01:02:00.863Z,2.97
2018-08-24T01:07:09.588Z,2.90
2018-08-24T01:12:14.077Z,5.50
2018-08-24T01:17:22.640Z,2.47
2018-08-24T01:22:25.831Z,1.90
2018-08-24T01:27:29.035Z,4.10
2018-08-24T01:32:32.245Z,7.43
2018-08-24T01:37:35.476Z,2.33
2018-08-24T01:42:38.684Z,2.60
2018-08-24T01:47:41.871Z,2.50
2018-08-24T01:52:45.092Z,2.07
2018-08-24T01:57:48.289Z,3.10
2018-08-24T02:02:51.528Z,2.53
2018-08-24T02:07:54.735Z,2.73
2018-08-24T02:13:03.251Z,2.27
2018-08-24T02:18:11.732Z,2.70
2018-08-24T02:23:15.024Z,2.97
2018-08-24T02:28:18.228Z,3.67
2018-08-24T02:33:21.444Z,2.60
2018-08-24T02:38:24.712Z,2.70
2018-08-24T02:43:27.902Z,2.77
2018-08-24T02:48:31.176Z,2.67
2018-08-24T02:53:34.388Z,3.10
2018-08-24T02:58:37.592Z,2.97
2018-08-24T03:03:40.816Z,3.23
2018-08-24T03:08:44.037Z,3.03
2018-08-24T03:13:47.277Z,2.17
2018-08-24T03:18:50.472Z,2.60
2018-08-24T03:23:53.699Z,2.40
2018-08-24T03:28:56.908Z,2.13
2018-08-24T03:34:00.095Z,2.93
2018-08-24T03:39:03.757Z,2.27
2018-08-24T03:44:06.963Z,2.70
2018-08-24T03:49:10.168Z,2.53
2018-08-24T03:54:15.315Z,2.83
2018-08-24T03:59:18.511Z,2.87
2018-08-24T04:04:21.740Z,3.40
2018-08-24T04:09:24.950Z,4.23
2018-08-24T04:14:28.156Z,4.00
2018-08-24T04:19:31.464Z,3.50
2018-08-24T04:24:34.568Z,4.40
2018-08-24T04:29:37.768Z,4.03
2018-08-24T04:34:40.968Z,4.13
2018-08-24T04:39:44.183Z,4.33
2018-08-24T04:44:47.384Z,5.00
2018-08-24T04:49:50.702Z,5.53
2018-08-24T04:54:53.897Z,5.10
2018-08-24T04:59:57.091Z,5.20
2018-08-24T05:05:00.320Z,4.20
2018-08-24T05:10:03.551Z,4.70
2018-08-24T05:15:06.873Z,5.37
2018-08-24T05:20:10.063Z,4.87
2018-08-24T05:25:13.272Z,4.07
2018-08-24T05:30:16.463Z,5.30
2018-08-24T05:35:19.661Z,5.67
2018-08-24T05:40:22.848Z,4.50
2018-08-24T05:45:26.068Z,7.40
2018-08-24T05:50:29.307Z,8.30
2018-08-24T05:55:32.558Z,6.53
2018-08-24T06:00:36.923Z,6.70
2018-08-24T06:05:45.728Z,7.83
2018-08-24T06:10:48.824Z,5.83
2018-08-24T06:15:52.024Z,7.00
2018-08-24T06:20:55.206Z,7.57
2018-08-24T06:25:58.388Z,11.40
2018-08-24T06:31:01.575Z,7.43
2018-08-24T06:36:04.872Z,8.63
2018-08-24T06:41:08.067Z,12.77
2018-08-24T06:46:11.284Z,6.80
2018-08-24T06:51:14.532Z,12.60
2018-08-24T06:56:17.729Z,7.17
2018-08-24T07:01:20.940Z,7.27
2018-08-24T07:06:24.639Z,8.37
2018-08-24T07:11:27.847Z,8.20
2018-08-24T07:16:31.056Z,7.43
2018-08-24T07:21:34.240Z,6.80
2018-08-24T07:26:37.500Z,6.27
2018-08-24T07:31:40.709Z,7.23
2018-08-24T07:36:43.903Z,9.10
2018-08-24T07:41:47.163Z,11.47
2018-08-24T07:46:50.354Z,10.70
2018-08-24T07:51:53.575Z,12.93
2018-08-24T07:56:56.821Z,20.57
2018-08-24T08:02:00.029Z,21.17
2018-08-24T08:07:03.239Z,17.77
2018-08-24T08:12:06.496Z,16.87
2018-08-24T08:17:09.692Z,15.23
2018-08-24T08:22:13.152Z,15.67
2018-08-24T08:27:16.337Z,17.80
2018-08-24T08:32:19.528Z,18.53
2018-08-24T08:37:23.658Z,14.20
2018-08-24T08:42:27.219Z,18.30
2018-08-24T08:47:30.432Z,20.13
2018-08-24T08:52:33.772Z,15.97
2018-08-24T08:57:36.972Z,14.00
2018-08-24T09:02:40.208Z,17.13
2018-08-24T09:07:43.516Z,10.73
2018-08-24T09:12:46.841Z,11.17
2018-08-24T09:17:55.213Z,13.47
2018-08-24T09:23:03.854Z,12.27
2018-08-24T09:28:12.685Z,10.60
2018-08-24T09:33:15.896Z,10.60
2018-08-24T09:38:19.094Z,11.63
2018-08-24T09:43:27.732Z,14.17
2018-08-24T09:48:35.175Z,14.10
2018-08-24T09:53:43.932Z,10.10
2018-08-24T09:58:47.145Z,8.80
2018-08-24T10:03:55.894Z,8.80
2018-08-24T10:08:59.124Z,9.47
2018-08-24T10:14:02.401Z,8.37
2018-08-24T10:19:05.652Z,10.67
2018-08-24T10:24:09.237Z,17.10
2018-08-24T10:29:12.449Z,9.23
2018-08-24T10:34:15.649Z,12.27
2018-08-24T10:39:18.852Z,6.70
2018-08-24T10:44:22.096Z,7.10
2018-08-24T10:49:25.363Z,11.83
2018-08-24T10:54:28.507Z,6.00
2018-08-24T10:59:31.703Z,8.37
2018-08-24T11:04:34.963Z,8.93
2018-08-24T11:09:38.152Z,5.87
2018-08-24T11:14:41.348Z,4.40
2018-08-24T11:19:44.550Z,8.73
2018-08-24T11:24:47.756Z,9.13
2018-08-24T11:29:50.946Z,7.37
2018-08-24T11:34:54.152Z,5.60
2018-08-24T11:39:57.358Z,4.30
2018-08-24T11:45:00.555Z,7.00
2018-08-24T11:50:03.880Z,5.50
2018-08-24T11:55:07.105Z,8.93
2018-08-24T12:00:10.313Z,8.03
2018-08-24T12:05:13.540Z,4.40
2018-08-24T12:10:16.732Z,8.80
2018-08-24T12:15:19.939Z,7.03
2018-08-24T12:20:23.136Z,5.83
2018-08-24T12:25:26.567Z,7.17
2018-08-24T12:30:29.883Z,6.33
2018-08-24T12:35:33.067Z,7.67
2018-08-24T12:40:36.320Z,6.87
2018-08-24T12:45:39.513Z,4.90
2018-08-24T12:50:42.840Z,5.23
2018-08-24T12:55:46.159Z,4.43
2018-08-24T13:00:49.384Z,6.77
2018-08-24T13:05:52.608Z,3.43
2018-08-24T13:10:56.642Z,5.43
2018-08-24T13:16:00.052Z,4.00
2018-08-24T13:21:03.630Z,8.00
2018-08-24T13:26:06.959Z,4.83
2018-08-24T13:31:10.179Z,2.50
2018-08-24T13:36:13.492Z,3.77
2018-08-24T13:41:16.883Z,4.80
2018-08-24T13:46:21.100Z,4.70
2018-08-24T13:51:24.344Z,10.67
2018-08-24T13:56:27.528Z,5.87
2018-08-24T14:01:30.772Z,4.70
2018-08-24T14:06:33.984Z,4.43
2018-08-24T14:11:37.251Z,9.03
2018-08-24T14:16:40.444Z,3.00
2018-08-24T14:21:43.704Z,7.47
2018-08-24T14:26:46.884Z,3.10
2018-08-24T14:31:50.272Z,2.70
2018-08-24T14:36:53.420Z,5.27
2018-08-24T14:41:56.620Z,1.90
2018-08-24T14:47:00.667Z,3.60
2018-08-24T14:52:04.545Z,3.40
2018-08-24T14:57:07.799Z,5.87
2018-08-24T15:02:11.130Z,7.90
2018-08-24T15:07:14.477Z,14.37
2018-08-24T15:12:18.247Z,9.30
2018-08-24T15:17:21.468Z,23.40
2018-08-24T15:22:24.686Z,20.53
2018-08-24T15:27:27.987Z,7.93
2018-08-24T15:32:31.200Z,5.67
2018-08-24T15:37:34.407Z,5.43
2018-08-24T15:42:37.621Z,6.40
2018-08-24T15:47:40.824Z,7.67
2018-08-24T15:52:44.801Z,4.67
2018-08-24T15:59:57.648Z,15.10
2018-08-24T16:05:00.911Z,26.87
2018-08-24T16:10:04.116Z,10.50
2018-08-24T16:15:07.855Z,13.97
2018-08-24T16:20:12.296Z,31.27
2018-08-24T16:25:15.669Z,7.57
2018-08-24T16:30:18.948Z,15.00
2018-08-24T16:35:22.147Z,15.70
2018-08-24T16:40:25.859Z,6.03
2018-08-24T16:45:30.772Z,14.50
2018-08-24T16:50:34.006Z,18.13
2018-08-24T16:55:37.327Z,21.70
2018-08-24T17:00:40.535Z,18.53
2018-08-24T17:05:44.192Z,14.50
2018-08-24T17:10:47.472Z,17.50
2018-08-24T17:15:50.877Z,17.27
2018-08-24T17:20:54.221Z,6.70
2018-08-24T17:25:57.523Z,15.60
2018-08-24T17:31:00.811Z,13.10
2018-08-24T17:36:04.020Z,9.03
2018-08-24T17:41:07.231Z,12.43
2018-08-24T17:46:10.440Z,8.30
2018-08-24T17:51:13.651Z,8.17
2018-08-24T17:56:16.960Z,12.23
2018-08-24T18:01:20.300Z,4.37
2018-08-24T18:06:23.592Z,6.70
2018-08-24T18:11:26.827Z,4.17
2018-08-24T18:16:30.168Z,7.80
2018-08-24T18:21:33.412Z,5.03
2018-08-24T18:26:36.628Z,5.00
2018-08-24T18:31:39.992Z,1.50
2018-08-24T18:36:43.238Z,3.10
2018-08-24T18:41:46.384Z,2.03
2018-08-24T18:46:49.680Z,6.23
2018-08-24T18:51:52.995Z,3.70
2018-08-24T18:56:56.552Z,7.90
2018-08-24T19:01:59.841Z,6.80
2018-08-24T19:07:03.148Z,2.63
2018-08-24T19:12:38.184Z,3.00
2018-08-24T19:17:46.720Z,2.73
2018-08-24T19:22:49.908Z,1.97
2018-08-24T19:27:58.445Z,6.33
2018-08-24T19:33:02.620Z,2.03
2018-08-24T19:38:05.880Z,2.93
2018-08-24T19:43:09.132Z,10.53
2018-08-24T19:48:17.929Z,4.60
2018-08-24T19:53:21.100Z,1.20
2018-08-24T19:58:29.788Z,4.83
2018-08-24T20:03:33.004Z,17.83
2018-08-24T20:08:41.553Z,3.63
2018-08-24T20:13:44.728Z,2.20
2018-08-24T20:18:47.968Z,2.23
2018-08-24T20:23:51.145Z,2.70
2018-08-24T20:28:54.408Z,1.47
2018-08-24T20:33:57.605Z,2.60
2018-08-24T20:39:00.828Z,1.50
2018-08-24T20:44:04.022Z,2.17
2018-08-24T20:49:07.224Z,5.10
2018-08-24T20:54:10.520Z,2.53
2018-08-24T20:59:13.716Z,5.00
2018-08-24T21:04:17.018Z,1.20
2018-08-24T21:09:20.208Z,10.63
2018-08-24T21:14:23.526Z,2.27
2018-08-24T21:19:26.733Z,1.67
2018-08-24T21:24:29.948Z,1.43
2018-08-24T21:29:33.258Z,2.77
2018-08-24T21:34:36.583Z,8.60
2018-08-24T21:39:39.862Z,3.53
2018-08-24T21:44:43.110Z,3.10
2018-08-24T21:49:46.328Z,4.10
2018-08-24T21:54:49.604Z,3.50
2018-08-24T21:59:52.828Z,3.10
2018-08-24T22:04:56.060Z,1.87
2018-08-24T22:09:59.348Z,5.77
2018-08-24T22:15:02.572Z,1.97
2018-08-24T22:20:06.280Z,3.43
2018-08-24T22:25:09.517Z,1.50
2018-08-24T22:30:12.816Z,1.90
2018-08-24T22:35:16.012Z,3.40
2018-08-24T22:40:19.300Z,2.77
2018-08-24T22:45:23.729Z,3.60
2018-08-24T22:50:26.964Z,5.43
2018-08-24T22:55:30.210Z,2.93
2018-08-24T23:10:11.716Z,3.20
2018-08-24T23:15:14.905Z,1.73
2018-08-24T23:20:18.090Z,1.67
2018-08-24T23:25:21.336Z,5.47
2018-08-24T23:30:24.516Z,5.10
2018-08-24T23:35:27.751Z,5.13
2018-08-24T23:40:30.956Z,2.57
2018-08-24T23:45:34.203Z,1.93
2018-08-24T23:50:37.415Z,2.87
2018-08-24T23:55:40.756Z,3.10
